Time;durP1;ratioP1;P1;durP2;ratioP2;P2;SDS_P1;SDS_P2;PMS_P1;PMS_P2;Temp;Humidity;BMP_temperature;BMP_pressure;BME280_temperature;BME280_humidity;BME280_pressure;Samples;Min_cycle;Max_cycle;Signal;HPM_P1;HPM_P2
2023/08/24 00:01:32;;;;;;;10.40;4.70;;;;;;;;;;5052838;28;20032;-30
2023/08/24 00:03:57;;;;;;;10.17;5.10;;;;;;;;;;5052845;28;20025;-31
2023/08/24 00:06:22;;;;;;;11.15;4.90;;;;;;;;;;5052795;28;20013;-31
2023/08/24 00:08:47;;;;;;;9.47;4.93;;;;;;;;;;5052767;28;20486;-31
2023/08/24 00:11:14;;;;;;;13.70;5.55;;;;;;;;;;5053073;28;20330;-31
2023/08/24 00:13:40;;;;;;;10.70;4.82;;;;;;;;;;5052651;28;20431;-30
2023/08/24 00:16:05;;;;;;;10.07;4.75;;;;;;;;;;5052990;28;20021;-30
2023/08/24 00:18:32;;;;;;;11.57;4.93;;;;;;;;;;5055267;28;20021;-30
2023/08/24 00:20:58;;;;;;;10.60;5.20;;;;;;;;;;5056281;28;20029;-31
2023/08/24 00:23:23;;;;;;;8.77;4.95;;;;;;;;;;5056479;28;20036;-30
2023/08/24 00:25:48;;;;;;;9.80;5.18;;;;;;;;;;5056412;28;20025;-31
2023/08/24 00:28:13;;;;;;;10.88;5.35;;;;;;;;;;5056163;28;20108;-31
2023/08/24 00:30:39;;;;;;;10.43;5.00;;;;;;;;;;5056276;28;20070;-30
2023/08/24 00:33:04;;;;;;;13.93;9.20;;;;;;;;;;5056326;28;20347;-30
2023/08/24 00:35:30;;;;;;;11.75;5.60;;;;;;;;;;5056328;28;20046;-30
2023/08/24 00:37:55;;;;;;;10.20;5.07;;;;;;;;;;5056306;28;20020;-30
2023/08/24 00:40:21;;;;;;;9.40;5.33;;;;;;;;;;5056010;28;20372;-30
2023/08/24 00:42:46;;;;;;;10.45;5.32;;;;;;;;;;5056118;28;20259;-30
2023/08/24 00:45:12;;;;;;;11.40;5.07;;;;;;;;;;5056302;28;20444;-30
2023/08/24 00:47:38;;;;;;;9.30;5.10;;;;;;;;;;5055861;28;20021;-30
2023/08/24 00:50:04;;;;;;;11.63;5.20;;;;;;;;;;5055742;28;20013;-31
2023/08/24 00:52:31;;;;;;;10.43;5.30;;;;;;;;;;5055569;28;20017;-30
2023/08/24 00:54:56;;;;;;;10.13;4.93;;;;;;;;;;5055128;28;20074;-30
2023/08/24 00:57:21;;;;;;;10.40;4.93;;;;;;;;;;5055616;28;20395;-31
2023/08/24 00:59:47;;;;;;;15.38;5.10;;;;;;;;;;5055881;28;20021;-30
2023/08/24 01:02:12;;;;;;;10.40;5.20;;;;;;;;;;5055572;28;20033;-31
2023/08/24 01:04:41;;;;;;;9.00;4.93;;;;;;;;;;5055400;28;20025;-31
2023/08/24 01:07:08;;;;;;;8.82;5.47;;;;;;;;;;5055732;28;20248;-30
2023/08/24 01:09:33;;;;;;;10.27;5.00;;;;;;;;;;5055733;28;20483;-30
2023/08/24 01:12:17;;;;;;;9.18;5.35;;;;;;;;;;5053876;28;20045;-29
2023/08/24 01:14:48;;;;;;;11.40;5.40;;;;;;;;;;5055327;28;20029;-30
2023/08/24 01:17:16;;;;;;;11.90;5.30;;;;;;;;;;5055582;28;20028;-30
2023/08/24 01:19:42;;;;;;;9.63;5.50;;;;;;;;;;5055031;28;20028;-31
2023/08/24 01:22:11;;;;;;;14.27;5.75;;;;;;;;;;5055724;28;20379;-29
2023/08/24 01:24:39;;;;;;;9.48;5.55;;;;;;;;;;5053895;28;20021;-29
2023/08/24 01:27:05;;;;;;;13.27;5.75;;;;;;;;;;5055125;28;20104;-31
2023/08/24 01:29:30;;;;;;;9.98;5.15;;;;;;;;;;5054687;28;20032;-30
2023/08/24 01:31:56;;;;;;;7.90;5.65;;;;;;;;;;5055009;28;20013;-31
2023/08/24 01:34:21;;;;;;;11.65;6.13;;;;;;;;;;5055017;28;20063;-31
2023/08/24 01:36:46;;;;;;;8.87;5.47;;;;;;;;;;5055484;28;20059;-29
2023/08/24 01:39:16;;;;;;;12.35;6.40;;;;;;;;;;5055435;28;20368;-31
2023/08/24 01:41:42;;;;;;;12.73;5.95;;;;;;;;;;5055291;28;20021;-31
2023/08/24 01:44:09;;;;;;;13.90;6.18;;;;;;;;;;5055278;28;20443;-30
2023/08/24 01:46:36;;;;;;;13.65;6.47;;;;;;;;;;5054720;28;20017;-30
2023/08/24 01:49:02;;;;;;;10.05;6.22;;;;;;;;;;5054651;28;20468;-30
2023/08/24 01:51:28;;;;;;;15.43;6.22;;;;;;;;;;5054642;28;20032;-31
2023/08/24 01:53:53;;;;;;;11.00;6.43;;;;;;;;;;5054687;28;20028;-31
2023/08/24 01:56:18;;;;;;;10.90;6.55;;;;;;;;;;5054490;28;20016;-30
2023/08/24 01:58:44;;;;;;;19.87;6.70;;;;;;;;;;5054532;28;20013;-32
2023/08/24 02:01:10;;;;;;;12.90;6.90;;;;;;;;;;5054766;28;20258;-31
2023/08/24 02:03:35;;;;;;;12.70;6.60;;;;;;;;;;5054299;28;20265;-30
2023/08/24 02:06:00;;;;;;;11.20;6.63;;;;;;;;;;5054509;28;20017;-30
2023/08/24 02:08:26;;;;;;;11.70;7.10;;;;;;;;;;5054557;28;20063;-31
2023/08/24 02:10:51;;;;;;;12.87;7.20;;;;;;;;;;5054784;28;20066;-30
2023/08/24 02:13:16;;;;;;;15.67;7.30;;;;;;;;;;5054100;28;20288;-31
2023/08/24 02:15:41;;;;;;;13.30;6.68;;;;;;;;;;5054432;28;20310;-30
2023/08/24 02:18:07;;;;;;;15.80;7.33;;;;;;;;;;5054323;28;20138;-30
2023/08/24 02:20:36;;;;;;;15.27;7.80;;;;;;;;;;5053997;28;20645;-29
2023/08/24 02:23:01;;;;;;;12.65;7.65;;;;;;;;;;5053882;28;20040;-31
2023/08/24 02:25:26;;;;;;;11.40;7.35;;;;;;;;;;5054115;28;20033;-31
2023/08/24 02:27:52;;;;;;;15.13;7.70;;;;;;;;;;5053818;28;20092;-31
2023/08/24 02:30:17;;;;;;;12.67;7.77;;;;;;;;;;5053836;28;20021;-31
2023/08/24 02:32:42;;;;;;;20.60;8.65;;;;;;;;;;5054400;28;20023;-30
2023/08/24 02:35:08;;;;;;;17.42;7.82;;;;;;;;;;5053698;28;20363;-30
2023/08/24 02:37:33;;;;;;;15.68;7.80;;;;;;;;;;5054078;28;20033;-31
2023/08/24 02:39:58;;;;;;;15.55;7.95;;;;;;;;;;5053709;28;20017;-30
2023/08/24 02:42:23;;;;;;;12.20;7.83;;;;;;;;;;5053487;28;20025;-31
2023/08/24 02:44:49;;;;;;;11.57;7.40;;;;;;;;;;5053589;28;20574;-31
2023/08/24 02:47:14;;;;;;;14.05;7.78;;;;;;;;;;5053911;28;20718;-31
2023/08/24 02:49:40;;;;;;;13.43;7.85;;;;;;;;;;5053434;28;20021;-30
2023/08/24 02:52:05;;;;;;;14.60;7.27;;;;;;;;;;5052352;28;20678;-30
2023/08/24 02:54:30;;;;;;;13.25;7.95;;;;;;;;;;5052129;28;20104;-30
2023/08/24 02:56:55;;;;;;;13.30;7.60;;;;;;;;;;5052681;28;20024;-30
2023/08/24 02:59:20;;;;;;;12.20;7.57;;;;;;;;;;5052508;28;20111;-30
2023/08/24 03:01:46;;;;;;;12.57;7.67;;;;;;;;;;5052582;28;20678;-31
2023/08/24 03:04:11;;;;;;;12.63;7.60;;;;;;;;;;5052750;28;20291;-30
2023/08/24 03:06:36;;;;;;;15.87;7.10;;;;;;;;;;5053970;28;20031;-29
2023/08/24 03:09:04;;;;;;;13.43;7.57;;;;;;;;;;5053372;28;20293;-30
2023/08/24 03:11:30;;;;;;;11.00;7.20;;;;;;;;;;5054406;28;20295;-29
2023/08/24 03:13:55;;;;;;;13.50;7.20;;;;;;;;;;5053133;28;20095;-30
2023/08/24 03:16:20;;;;;;;14.80;7.60;;;;;;;;;;5053568;28;20479;-29
2023/08/24 03:18:45;;;;;;;13.77;7.70;;;;;;;;;;5053529;28;20251;-30
2023/08/24 03:21:11;;;;;;;13.80;7.40;;;;;;;;;;5053205;28;20092;-30
2023/08/24 03:23:36;;;;;;;15.45;7.10;;;;;;;;;;5053488;28;20039;-30
2023/08/24 03:26:01;;;;;;;13.60;7.38;;;;;;;;;;5053329;28;20044;-30
2023/08/24 03:28:27;;;;;;;14.43;7.72;;;;;;;;;;5053431;28;20021;-30
2023/08/24 03:30:54;;;;;;;12.38;7.50;;;;;;;;;;5053341;28;20456;-30
2023/08/24 03:33:19;;;;;;;14.05;7.38;;;;;;;;;;5053050;28;20036;-30
2023/08/24 03:35:45;;;;;;;16.70;7.30;;;;;;;;;;5053299;28;20025;-30
2023/08/24 03:38:10;;;;;;;14.10;7.55;;;;;;;;;;5053100;28;20590;-32
2023/08/24 03:40:35;;;;;;;15.17;7.57;;;;;;;;;;5053348;28;20028;-31
2023/08/24 03:43:03;;;;;;;17.80;7.75;;;;;;;;;;5053062;28;20258;-30
2023/08/24 03:45:28;;;;;;;12.77;7.57;;;;;;;;;;5052936;28;20515;-30
2023/08/24 03:47:54;;;;;;;12.30;7.20;;;;;;;;;;5053055;28;20143;-30
2023/08/24 03:50:19;;;;;;;11.75;7.38;;;;;;;;;;5052986;28;20273;-30
2023/08/24 03:52:44;;;;;;;15.50;7.95;;;;;;;;;;5054382;28;20013;-29
2023/08/24 03:55:09;;;;;;;11.07;7.70;;;;;;;;;;5056764;28;20460;-30
2023/08/24 03:57:35;;;;;;;14.48;7.60;;;;;;;;;;5056713;28;20033;-30
2023/08/24 04:00:00;;;;;;;14.93;7.30;;;;;;;;;;5056730;28;20025;-29
2023/08/24 04:02:26;;;;;;;10.35;7.53;;;;;;;;;;5057196;28;20021;-31
2023/08/24 04:04:52;;;;;;;17.58;7.47;;;;;;;;;;5057292;28;20044;-29
2023/08/24 04:07:17;;;;;;;14.38;7.90;;;;;;;;;;5056611;28;20036;-30
2023/08/24 04:09:42;;;;;;;12.73;8.00;;;;;;;;;;5056848;28;20062;-30
2023/08/24 04:12:07;;;;;;;13.00;8.18;;;;;;;;;;5056514;28;20395;-31
2023/08/24 04:14:33;;;;;;;17.25;8.52;;;;;;;;;;5056381;28;20025;-31
2023/08/24 04:16:58;;;;;;;15.73;8.25;;;;;;;;;;5056743;28;20106;-31
2023/08/24 04:19:23;;;;;;;11.18;7.75;;;;;;;;;;5056906;28;20021;-31
2023/08/24 04:21:48;;;;;;;14.47;8.10;;;;;;;;;;5056901;28;20521;-31
2023/08/24 04:24:13;;;;;;;14.45;7.88;;;;;;;;;;5056406;28;20311;-31
2023/08/24 04:26:39;;;;;;;13.10;8.00;;;;;;;;;;5056181;28;20009;-31
2023/08/24 04:29:04;;;;;;;12.70;8.23;;;;;;;;;;5056736;28;20250;-31
2023/08/24 04:31:29;;;;;;;13.00;8.00;;;;;;;;;;5056141;28;20062;-31
2023/08/24 04:33:54;;;;;;;14.17;8.40;;;;;;;;;;5056679;28;20243;-30
2023/08/24 04:36:19;;;;;;;17.52;7.68;;;;;;;;;;5056413;28;20044;-29
2023/08/24 04:38:45;;;;;;;19.20;7.80;;;;;;;;;;5056601;28;20017;-30
2023/08/24 04:41:12;;;;;;;15.10;8.63;;;;;;;;;;5056208;28;20287;-30
2023/08/24 04:43:37;;;;;;;14.82;7.65;;;;;;;;;;5056249;28;20017;-31
2023/08/24 04:46:02;;;;;;;15.38;8.00;;;;;;;;;;5056048;28;20021;-30
2023/08/24 04:48:32;;;;;;;12.88;7.97;;;;;;;;;;5055823;28;20014;-30
2023/08/24 04:50:57;;;;;;;12.55;7.65;;;;;;;;;;5055765;28;20020;-30
2023/08/24 04:53:23;;;;;;;15.05;8.02;;;;;;;;;;5055992;28;20028;-30
2023/08/24 04:55:48;;;;;;;10.53;7.33;;;;;;;;;;5055698;28;20009;-30
2023/08/24 04:58:13;;;;;;;11.15;7.63;;;;;;;;;;5055621;28;20250;-29
2023/08/24 05:00:38;;;;;;;14.20;7.65;;;;;;;;;;5055552;28;20020;-30
2023/08/24 05:03:04;;;;;;;13.85;8.13;;;;;;;;;;5056125;28;20025;-30
2023/08/24 05:05:30;;;;;;;15.10;8.10;;;;;;;;;;5054514;28;20032;-30
2023/08/24 05:07:55;;;;;;;20.77;8.57;;;;;;;;;;5055793;28;20036;-30
2023/08/24 05:10:20;;;;;;;14.35;8.20;;;;;;;;;;5055370;28;20017;-29
2023/08/24 05:12:45;;;;;;;12.07;8.13;;;;;;;;;;5055516;28;20048;-34
2023/08/24 05:15:11;;;;;;;12.80;7.70;;;;;;;;;;5055301;28;20255;-30
2023/08/24 05:17:36;;;;;;;12.33;7.53;;;;;;;;;;5055315;28;20064;-29
2023/08/24 05:20:01;;;;;;;15.57;8.68;;;;;;;;;;5055460;28;20264;-30
2023/08/24 05:22:27;;;;;;;15.50;7.72;;;;;;;;;;5055441;28;20029;-31
2023/08/24 05:24:52;;;;;;;14.37;8.03;;;;;;;;;;5055281;28;20071;-30
2023/08/24 05:27:17;;;;;;;15.00;8.40;;;;;;;;;;5055141;28;20017;-31
2023/08/24 05:29:43;;;;;;;13.13;8.20;;;;;;;;;;5055197;28;20040;-31
2023/08/24 05:32:08;;;;;;;16.92;8.13;;;;;;;;;;5055259;28;20653;-31
2023/08/24 05:34:33;;;;;;;15.23;8.33;;;;;;;;;;5054975;28;20032;-31
2023/08/24 05:36:58;;;;;;;13.65;8.18;;;;;;;;;;5055207;28;20116;-31
2023/08/24 05:39:23;;;;;;;12.80;7.70;;;;;;;;;;5055127;28;20032;-31
2023/08/24 05:41:52;;;;;;;17.05;7.22;;;;;;;;;;5055084;28;20263;-31
2023/08/24 05:44:18;;;;;;;14.65;7.38;;;;;;;;;;5055011;28;20029;-31
2023/08/24 05:46:44;;;;;;;16.75;7.45;;;;;;;;;;5054732;28;20349;-31
2023/08/24 05:49:09;;;;;;;15.25;7.63;;;;;;;;;;5054666;28;20464;-31
2023/08/24 05:51:34;;;;;;;14.47;7.40;;;;;;;;;;5054635;28;20017;-31
2023/08/24 05:54:00;;;;;;;14.47;7.80;;;;;;;;;;5054858;28;20251;-31
2023/08/24 05:56:25;;;;;;;15.25;6.97;;;;;;;;;;5055078;28;20013;-30
2023/08/24 05:58:50;;;;;;;15.80;7.13;;;;;;;;;;5054529;28;20372;-30
2023/08/24 06:01:15;;;;;;;10.32;7.10;;;;;;;;;;5054745;28;20255;-30
2023/08/24 06:03:41;;;;;;;11.18;6.60;;;;;;;;;;5054397;28;20488;-31
2023/08/24 06:06:07;;;;;;;13.23;6.80;;;;;;;;;;5054360;28;20032;-30
2023/08/24 06:08:33;;;;;;;11.65;6.80;;;;;;;;;;5054171;28;20048;-31
2023/08/24 06:10:58;;;;;;;11.20;6.47;;;;;;;;;;5054458;28;20095;-31
2023/08/24 06:13:23;;;;;;;12.53;6.10;;;;;;;;;;5054026;28;20049;-30
2023/08/24 06:15:49;;;;;;;12.40;6.35;;;;;;;;;;5054269;28;20259;-31
2023/08/24 06:18:14;;;;;;;12.60;5.70;;;;;;;;;;5054321;28;20054;-31
2023/08/24 06:20:39;;;;;;;10.23;5.67;;;;;;;;;;5054156;28;20526;-31
2023/08/24 06:23:05;;;;;;;11.23;5.50;;;;;;;;;;5054027;28;20016;-31
2023/08/24 06:25:31;;;;;;;14.07;5.43;;;;;;;;;;5053836;28;20074;-31
2023/08/24 06:27:56;;;;;;;12.77;6.30;;;;;;;;;;5052822;28;20013;-30
2023/08/24 06:30:21;;;;;;;7.90;5.53;;;;;;;;;;5053939;28;20109;-31
2023/08/24 06:32:46;;;;;;;9.13;5.27;;;;;;;;;;5054463;28;20025;-30
2023/08/24 06:35:14;;;;;;;13.00;5.43;;;;;;;;;;5053002;28;20025;-31
2023/08/24 06:37:39;;;;;;;9.25;5.30;;;;;;;;;;5051721;28;20365;-30
2023/08/24 06:40:05;;;;;;;13.95;5.57;;;;;;;;;;5051501;28;20028;-31
2023/08/24 06:42:30;;;;;;;8.63;5.22;;;;;;;;;;5051677;28;20418;-31
2023/08/24 06:44:55;;;;;;;7.93;5.30;;;;;;;;;;5051718;28;20036;-31
2023/08/24 06:47:20;;;;;;;8.03;5.17;;;;;;;;;;5051530;28;20013;-30
2023/08/24 06:49:45;;;;;;;8.03;5.10;;;;;;;;;;5051387;28;20067;-31
2023/08/24 06:52:11;;;;;;;11.23;5.17;;;;;;;;;;5053403;28;20017;-31
2023/08/24 06:54:36;;;;;;;9.50;5.20;;;;;;;;;;5053816;28;20025;-32
2023/08/24 06:57:01;;;;;;;12.73;5.20;;;;;;;;;;5054006;28;20436;-32
2023/08/24 06:59:26;;;;;;;15.73;5.40;;;;;;;;;;5053484;28;20527;-32
2023/08/24 07:01:52;;;;;;;12.47;5.50;;;;;;;;;;5053401;28;20092;-31
2023/08/24 07:04:17;;;;;;;9.43;5.28;;;;;;;;;;5053590;28;20035;-32
2023/08/24 07:06:43;;;;;;;10.00;5.30;;;;;;;;;;5053622;28;20017;-32
2023/08/24 07:09:08;;;;;;;10.90;5.40;;;;;;;;;;5053524;28;20009;-32
2023/08/24 07:11:34;;;;;;;8.63;4.87;;;;;;;;;;5053199;28;20096;-32
2023/08/24 07:13:59;;;;;;;8.27;5.33;;;;;;;;;;5052948;28;20065;-32
2023/08/24 07:16:24;;;;;;;8.87;5.20;;;;;;;;;;5053434;28;20017;-31
2023/08/24 07:18:50;;;;;;;9.32;5.43;;;;;;;;;;5053303;28;20029;-31
2023/08/24 07:21:16;;;;;;;11.70;5.80;;;;;;;;;;5053559;28;20398;-31
2023/08/24 07:23:41;;;;;;;12.95;5.53;;;;;;;;;;5053451;28;20032;-31
2023/08/24 07:26:08;;;;;;;12.23;5.10;;;;;;;;;;5053113;28;20464;-32
2023/08/24 07:28:33;;;;;;;10.32;5.95;;;;;;;;;;5056178;28;20021;-32
2023/08/24 07:31:06;;;;;;;11.27;6.00;;;;;;;;;;5057220;28;20017;-32
2023/08/24 07:33:31;;;;;;;11.25;5.80;;;;;;;;;;5057266;28;20025;-31
2023/08/24 07:35:56;;;;;;;12.37;5.90;;;;;;;;;;5057506;28;20418;-32
2023/08/24 07:38:21;;;;;;;14.32;5.80;;;;;;;;;;5057178;28;20013;-31
2023/08/24 07:40:47;;;;;;;9.50;5.90;;;;;;;;;;5057705;28;20029;-31
2023/08/24 07:43:12;;;;;;;10.55;5.45;;;;;;;;;;5057399;28;20016;-32
2023/08/24 07:45:38;;;;;;;12.70;5.78;;;;;;;;;;5057263;28;20043;-31
2023/08/24 07:48:03;;;;;;;17.03;5.97;;;;;;;;;;5056945;28;20349;-32
2023/08/24 07:50:28;;;;;;;11.98;5.97;;;;;;;;;;5056954;28;20281;-31
2023/08/24 07:52:53;;;;;;;8.30;5.90;;;;;;;;;;5057530;28;20345;-32
2023/08/24 07:55:19;;;;;;;12.87;5.90;;;;;;;;;;5056889;28;20481;-31
2023/08/24 07:57:44;;;;;;;14.30;6.30;;;;;;;;;;5056917;28;20272;-31
2023/08/24 08:00:09;;;;;;;11.13;5.73;;;;;;;;;;5056210;28;20291;-32
2023/08/24 08:02:37;;;;;;;13.80;6.20;;;;;;;;;;5056801;28;20264;-31
2023/08/24 08:05:02;;;;;;;16.55;6.25;;;;;;;;;;5056865;28;20020;-31
2023/08/24 08:07:28;;;;;;;10.52;6.07;;;;;;;;;;5056923;28;20044;-31
2023/08/24 08:09:53;;;;;;;15.55;7.15;;;;;;;;;;5056822;28;20070;-31
2023/08/24 08:12:19;;;;;;;11.60;6.47;;;;;;;;;;5056601;28;20515;-31
2023/08/24 08:14:44;;;;;;;19.87;6.67;;;;;;;;;;5056522;28;20321;-32
2023/08/24 08:17:09;;;;;;;14.87;6.80;;;;;;;;;;5057015;28;20313;-32
2023/08/24 08:19:37;;;;;;;12.87;6.73;;;;;;;;;;5056978;28;20256;-31
2023/08/24 08:22:02;;;;;;;9.38;6.97;;;;;;;;;;5056281;28;20013;-32
2023/08/24 08:24:28;;;;;;;11.93;7.10;;;;;;;;;;5056823;28;20028;-31
2023/08/24 08:26:53;;;;;;;11.03;7.17;;;;;;;;;;5056291;28;20013;-32
2023/08/24 08:29:18;;;;;;;13.57;7.57;;;;;;;;;;5056302;28;20020;-32
2023/08/24 08:31:43;;;;;;;16.83;7.32;;;;;;;;;;5056840;28;20248;-32
2023/08/24 08:34:09;;;;;;;12.40;7.37;;;;;;;;;;5056004;28;20017;-32
2023/08/24 08:36:34;;;;;;;14.90;7.13;;;;;;;;;;5056643;28;20252;-31
2023/08/24 08:38:59;;;;;;;13.10;6.72;;;;;;;;;;5055375;28;20255;-31
2023/08/24 08:41:27;;;;;;;13.05;7.15;;;;;;;;;;5056279;28;20021;-31
2023/08/24 08:43:52;;;;;;;12.93;6.65;;;;;;;;;;5056193;28;20053;-31
2023/08/24 08:46:17;;;;;;;15.32;7.18;;;;;;;;;;5055775;28;20110;-32
2023/08/24 08:48:44;;;;;;;11.90;6.93;;;;;;;;;;5056130;28;20039;-32
2023/08/24 08:51:11;;;;;;;12.70;6.47;;;;;;;;;;5056026;28;20769;-31
2023/08/24 08:53:36;;;;;;;14.73;7.22;;;;;;;;;;5056011;28;20013;-32
2023/08/24 08:56:04;;;;;;;12.20;6.90;;;;;;;;;;5054404;28;20445;-32
2023/08/24 08:58:31;;;;;;;12.65;6.78;;;;;;;;;;5055818;28;20270;-32
2023/08/24 09:00:56;;;;;;;11.85;7.18;;;;;;;;;;5055822;28;20067;-32
2023/08/24 09:03:22;;;;;;;11.63;7.07;;;;;;;;;;5055494;28;20017;-32
2023/08/24 09:05:48;;;;;;;11.43;7.40;;;;;;;;;;5055948;28;20124;-31
2023/08/24 09:08:13;;;;;;;19.13;7.35;;;;;;;;;;5055467;28;20410;-32
2023/08/24 09:10:38;;;;;;;13.98;7.35;;;;;;;;;;5056021;28;20028;-31
2023/08/24 09:13:04;;;;;;;13.70;7.30;;;;;;;;;;5055302;28;20045;-31
2023/08/24 09:15:33;;;;;;;14.33;7.07;;;;;;;;;;5055305;28;20028;-31
2023/08/24 09:18:00;;;;;;;12.15;6.97;;;;;;;;;;5055523;28;20374;-32
2023/08/24 09:20:27;;;;;;;11.85;6.30;;;;;;;;;;5055590;28;20028;-32
2023/08/24 09:22:54;;;;;;;12.30;6.45;;;;;;;;;;5055677;28;20107;-32
2023/08/24 09:25:20;;;;;;;13.00;7.00;;;;;;;;;;5055347;28;20021;-32
2023/08/24 09:27:45;;;;;;;14.97;6.93;;;;;;;;;;5055123;28;20009;-32
2023/08/24 09:30:11;;;;;;;15.00;6.90;;;;;;;;;;5054957;28;20067;-31
2023/08/24 09:32:36;;;;;;;15.25;6.90;;;;;;;;;;5055058;28;20021;-31
2023/08/24 09:35:08;;;;;;;12.90;6.55;;;;;;;;;;5055267;28;20024;-32
2023/08/24 09:37:36;;;;;;;10.77;5.75;;;;;;;;;;5055229;28;20379;-32
2023/08/24 09:40:07;;;;;;;13.05;6.45;;;;;;;;;;5054856;28;20025;-32
2023/08/24 09:42:36;;;;;;;13.50;6.47;;;;;;;;;;5055089;28;20040;-32
2023/08/24 09:45:05;;;;;;;13.25;5.82;;;;;;;;;;5053368;28;20021;-32
2023/08/24 09:47:31;;;;;;;16.67;7.40;;;;;;;;;;5054590;28;20029;-32
2023/08/24 09:49:56;;;;;;;14.20;6.83;;;;;;;;;;5054303;28;20103;-32
2023/08/24 09:52:22;;;;;;;11.65;6.35;;;;;;;;;;5054949;28;20345;-31
2023/08/24 09:54:49;;;;;;;11.07;6.28;;;;;;;;;;5054528;28;20516;-32
2023/08/24 09:57:14;;;;;;;17.30;6.85;;;;;;;;;;5054477;28;20025;-32
2023/08/24 09:59:41;;;;;;;11.43;6.38;;;;;;;;;;5054681;28;20021;-31
2023/08/24 10:02:14;;;;;;;13.05;6.15;;;;;;;;;;5054414;28;20019;-32
2023/08/24 10:04:41;;;;;;;7.57;5.30;;;;;;;;;;5054541;28;20036;-31
2023/08/24 10:07:08;;;;;;;11.63;5.75;;;;;;;;;;5054630;28;20490;-30
2023/08/24 10:09:38;;;;;;;8.32;5.55;;;;;;;;;;5054177;28;20021;-31
2023/08/24 10:12:04;;;;;;;13.43;5.53;;;;;;;;;;5054318;28;20045;-31
2023/08/24 10:14:32;;;;;;;14.05;5.97;;;;;;;;;;5054126;28;20021;-30
2023/08/24 10:16:57;;;;;;;11.40;5.82;;;;;;;;;;5054381;28;20024;-32
2023/08/24 10:19:24;;;;;;;13.35;5.90;;;;;;;;;;5053793;28;20376;-31
2023/08/24 10:21:53;;;;;;;11.77;4.80;;;;;;;;;;5052000;28;20044;-31
2023/08/24 10:24:20;;;;;;;8.73;4.97;;;;;;;;;;5053146;28;20422;-30
2023/08/24 10:26:46;;;;;;;9.98;5.30;;;;;;;;;;5053997;28;20044;-31
2023/08/24 10:29:11;;;;;;;9.90;4.65;;;;;;;;;;5053856;28;20063;-30
2023/08/24 10:31:37;;;;;;;8.88;4.80;;;;;;;;;;5053759;28;20021;-31
2023/08/24 10:34:04;;;;;;;10.20;4.93;;;;;;;;;;5054253;28;20024;-31
2023/08/24 10:36:30;;;;;;;11.38;5.00;;;;;;;;;;5053805;28;20021;-31
2023/08/24 10:38:57;;;;;;;11.40;5.30;;;;;;;;;;5054069;28;20020;-31
2023/08/24 10:41:26;;;;;;;16.92;5.20;;;;;;;;;;5053733;28;20074;-31
2023/08/24 10:43:51;;;;;;;12.20;5.03;;;;;;;;;;5053942;28;20036;-31
2023/08/24 10:46:16;;;;;;;8.50;5.23;;;;;;;;;;5053442;28;20014;-31
2023/08/24 10:48:41;;;;;;;11.93;5.03;;;;;;;;;;5051882;28;20267;-32
2023/08/24 10:51:22;;;;;;;7.90;4.70;;;;;;;;;;5051911;28;20021;-31
2023/08/24 10:53:52;;;;;;;9.77;5.22;;;;;;;;;;5053682;28;20021;-31
2023/08/24 10:56:18;;;;;;;12.32;5.40;;;;;;;;;;5053353;28;20097;-32
2023/08/24 10:58:44;;;;;;;15.07;5.80;;;;;;;;;;5053804;28;20429;-32
2023/08/24 11:01:17;;;;;;;12.27;5.60;;;;;;;;;;5053338;28;20052;-32
2023/08/24 11:03:48;;;;;;;16.13;5.38;;;;;;;;;;5053152;28;20464;-31
2023/08/24 11:06:20;;;;;;;10.98;5.78;;;;;;;;;;5053693;28;20029;-32
2023/08/24 11:08:46;;;;;;;10.35;5.90;;;;;;;;;;5053674;28;20017;-31
2023/08/24 11:11:19;;;;;;;10.52;5.50;;;;;;;;;;5053203;28;20464;-32
2023/08/24 11:14:02;;;;;;;9.38;5.53;;;;;;;;;;5053232;28;20056;-32
2023/08/24 11:16:44;;;;;;;12.70;5.70;;;;;;;;;;5053540;28;20031;-32
2023/08/24 11:19:10;;;;;;;14.30;5.80;;;;;;;;;;5053499;28;20023;-31
2023/08/24 11:21:36;;;;;;;11.98;5.38;;;;;;;;;;5052926;28;20381;-32
2023/08/24 11:24:02;;;;;;;16.05;6.28;;;;;;;;;;5052882;28;20049;-31
2023/08/24 11:26:29;;;;;;;12.25;5.90;;;;;;;;;;5053605;28;20091;-31
2023/08/24 11:28:55;;;;;;;14.70;5.72;;;;;;;;;;5053433;28;20017;-31
2023/08/24 11:31:20;;;;;;;12.38;5.80;;;;;;;;;;5053094;28;20009;-32
2023/08/24 11:33:45;;;;;;;11.38;6.10;;;;;;;;;;5051830;28;20017;-31
2023/08/24 11:36:12;;;;;;;12.60;6.03;;;;;;;;;;5053140;28;20450;-32
2023/08/24 11:38:38;;;;;;;9.70;5.68;;;;;;;;;;5053388;28;20017;-32
2023/08/24 11:41:19;;;;;;;13.77;6.05;;;;;;;;;;5053050;28;20021;-32
2023/08/24 11:43:45;;;;;;;10.23;4.80;;;;;;;;;;5053268;28;20021;-31
2023/08/24 11:46:11;;;;;;;11.82;5.55;;;;;;;;;;5053298;28;20468;-32
2023/08/24 11:48:39;;;;;;;18.40;5.60;;;;;;;;;;5052920;28;20021;-32
2023/08/24 11:51:07;;;;;;;12.73;5.85;;;;;;;;;;5053281;28;20021;-32
2023/08/24 11:53:36;;;;;;;12.85;5.75;;;;;;;;;;5053443;28;20013;-32
2023/08/24 11:56:02;;;;;;;11.52;6.28;;;;;;;;;;5053153;28;20044;-31
2023/08/24 11:58:27;;;;;;;14.05;7.38;;;;;;;;;;5053190;28;20468;-32
2023/08/24 12:00:52;;;;;;;13.23;9.03;;;;;;;;;;5051648;28;20074;-31
2023/08/24 12:03:18;;;;;;;17.97;9.97;;;;;;;;;;5052830;28;20116;-31
2023/08/24 12:05:43;;;;;;;14.05;9.73;;;;;;;;;;5053476;28;20068;-32
2023/08/24 12:08:10;;;;;;;14.32;9.70;;;;;;;;;;5053097;28;20035;-32
2023/08/24 12:10:41;;;;;;;15.35;9.70;;;;;;;;;;5052840;28;20096;-31
2023/08/24 12:13:06;;;;;;;14.32;8.85;;;;;;;;;;5053052;28;20079;-31
2023/08/24 12:15:35;;;;;;;17.00;9.50;;;;;;;;;;5056538;28;20029;-32
2023/08/24 12:18:08;;;;;;;16.75;9.02;;;;;;;;;;5056398;28;20025;-31
2023/08/24 12:20:33;;;;;;;14.40;8.82;;;;;;;;;;5056687;28;20027;-31
2023/08/24 12:22:58;;;;;;;17.90;10.73;;;;;;;;;;5056418;28;20099;-32
2023/08/24 12:25:25;;;;;;;18.35;10.02;;;;;;;;;;5056202;28;20377;-31
2023/08/24 12:28:07;;;;;;;15.43;10.52;;;;;;;;;;5056529;28;20036;-31
2023/08/24 12:30:33;;;;;;;17.73;10.20;;;;;;;;;;5054620;28;20116;-31
2023/08/24 12:32:58;;;;;;;24.27;11.00;;;;;;;;;;5056113;28;20053;-31
2023/08/24 12:35:23;;;;;;;18.07;10.47;;;;;;;;;;5056350;28;20126;-31
2023/08/24 12:37:49;;;;;;;17.30;10.97;;;;;;;;;;5056006;28;20483;-31
2023/08/24 12:40:15;;;;;;;19.50;10.57;;;;;;;;;;5056085;28;20103;-30
2023/08/24 12:42:40;;;;;;;17.20;10.75;;;;;;;;;;5056259;28;20334;-30
2023/08/24 12:45:05;;;;;;;17.73;10.50;;;;;;;;;;5055817;28;20021;-32
2023/08/24 12:47:31;;;;;;;16.38;10.35;;;;;;;;;;5056361;28;20020;-30
2023/08/24 12:49:56;;;;;;;16.40;10.60;;;;;;;;;;5056034;28;20037;-31
2023/08/24 12:52:22;;;;;;;13.17;9.80;;;;;;;;;;5056377;28;20028;-32
2023/08/24 12:54:47;;;;;;;19.17;10.50;;;;;;;;;;5055621;28;20259;-31
2023/08/24 12:57:12;;;;;;;20.63;10.23;;;;;;;;;;5055579;28;20020;-32
2023/08/24 12:59:37;;;;;;;18.07;10.20;;;;;;;;;;5055489;28;20383;-32
2023/08/24 13:02:04;;;;;;;18.73;10.27;;;;;;;;;;5055819;28;20017;-32
2023/08/24 13:04:29;;;;;;;18.77;10.30;;;;;;;;;;5055605;28;20375;-32
2023/08/24 13:06:54;;;;;;;19.67;10.02;;;;;;;;;;5055704;28;20014;-32
2023/08/24 13:09:20;;;;;;;19.33;10.60;;;;;;;;;;5053858;28;20024;-32
2023/08/24 13:11:45;;;;;;;15.52;9.65;;;;;;;;;;5054962;28;20024;-30
2023/08/24 13:14:11;;;;;;;14.43;9.60;;;;;;;;;;5055429;28;20460;-31
2023/08/24 13:16:36;;;;;;;18.60;9.73;;;;;;;;;;5055597;28;20025;-31
2023/08/24 13:19:01;;;;;;;15.17;9.30;;;;;;;;;;5055259;28;20384;-32
2023/08/24 13:21:26;;;;;;;17.50;9.90;;;;;;;;;;5055466;28;20029;-31
2023/08/24 13:23:52;;;;;;;16.17;9.07;;;;;;;;;;5055515;28;20263;-33
2023/08/24 13:26:18;;;;;;;16.55;9.88;;;;;;;;;;5054335;28;20282;-31
2023/08/24 13:28:44;;;;;;;13.90;9.65;;;;;;;;;;5055362;28;20013;-32
2023/08/24 13:31:09;;;;;;;16.53;9.97;;;;;;;;;;5055129;28;20028;-31
2023/08/24 13:33:34;;;;;;;17.60;8.93;;;;;;;;;;5055588;28;20037;-31
2023/08/24 13:36:01;;;;;;;17.80;9.67;;;;;;;;;;5054962;28;20025;-32
2023/08/24 13:38:27;;;;;;;15.15;9.40;;;;;;;;;;5055285;28;20099;-32
2023/08/24 13:40:52;;;;;;;15.37;9.27;;;;;;;;;;5055507;28;20117;-32
2023/08/24 13:43:19;;;;;;;11.93;7.33;;;;;;;;;;5054934;28;20449;-31
2023/08/24 13:45:44;;;;;;;14.13;9.15;;;;;;;;;;5054718;28;20028;-32
2023/08/24 13:48:10;;;;;;;14.47;10.10;;;;;;;;;;5054375;28;20452;-31
2023/08/24 13:50:35;;;;;;;14.30;9.77;;;;;;;;;;5053642;28;20817;-32
2023/08/24 13:53:00;;;;;;;14.63;9.27;;;;;;;;;;5054168;28;20025;-32
2023/08/24 13:55:25;;;;;;;15.10;10.03;;;;;;;;;;5053899;28;20017;-32
2023/08/24 13:57:50;;;;;;;15.50;9.57;;;;;;;;;;5053604;28;20025;-31
2023/08/24 14:00:16;;;;;;;15.00;9.50;;;;;;;;;;5054253;28;20111;-31
2023/08/24 14:02:42;;;;;;;15.93;10.07;;;;;;;;;;5054605;28;20021;-32
2023/08/24 14:05:09;;;;;;;21.05;9.38;;;;;;;;;;5054650;28;20025;-31
2023/08/24 14:07:34;;;;;;;15.73;10.25;;;;;;;;;;5054338;28;20013;-32
2023/08/24 14:09:59;;;;;;;15.65;10.27;;;;;;;;;;5054611;28;20020;-31
2023/08/24 14:12:24;;;;;;;15.73;9.80;;;;;;;;;;5054403;28;20059;-31
2023/08/24 14:14:49;;;;;;;18.00;10.20;;;;;;;;;;5054453;28;20392;-31
2023/08/24 14:17:15;;;;;;;16.10;10.10;;;;;;;;;;5054211;28;20053;-31
2023/08/24 14:19:40;;;;;;;17.63;10.70;;;;;;;;;;5054093;28;20021;-31
2023/08/24 14:22:05;;;;;;;17.73;10.50;;;;;;;;;;5054196;28;20017;-31
2023/08/24 14:24:30;;;;;;;17.33;11.10;;;;;;;;;;5054412;28;20029;-30